sensor_id;sensor_type;location;lat;lon;timestamp;P1;durP1;ratioP1;P2;durP2;ratioP2
71969;SDS011;59838;52.152;5.436;2022-09-09T00:00:40;2.33;;;0.30;;
71969;SDS011;59838;52.152;5.436;2022-09-09T00:03:23;1.60;;;0.60;;
71969;SDS011;59838;52.152;5.436;2022-09-09T00:05:56;1.52;;;0.30;;
71969;SDS011;59838;52.152;5.436;2022-09-09T00:08:38;1.83;;;0.67;;
71969;SDS011;59838;52.152;5.436;2022-09-09T00:11:32;0.77;;;0.20;;
71969;SDS011;59838;52.152;5.436;2022-09-09T00:14:08;0.80;;;0.40;;
71969;SDS011;59838;52.152;5.436;2022-09-09T00:16:41;1.70;;;0.30;;
71969;SDS011;59838;52.152;5.436;2022-09-09T00:19:28;2.65;;;0.50;;
71969;SDS011;59838;52.152;5.436;2022-09-09T00:22:24;1.33;;;0.30;;
71969;SDS011;59838;52.152;5.436;2022-09-09T00:24:54;0.80;;;0.30;;
71969;SDS011;59838;52.152;5.436;2022-09-09T00:27:27;1.33;;;0.20;;
71969;SDS011;59838;52.152;5.436;2022-09-09T00:32:45;1.42;;;0.30;;
71969;SDS011;59838;52.152;5.436;2022-09-09T00:35:16;2.87;;;0.30;;
71969;SDS011;59838;52.152;5.436;2022-09-09T00:37:56;1.30;;;0.57;;
71969;SDS011;59838;52.152;5.436;2022-09-09T00:40:34;0.82;;;0.40;;
71969;SDS011;59838;52.152;5.436;2022-09-09T00:49:15;1.53;;;0.60;;
71969;SDS011;59838;52.152;5.436;2022-09-09T00:52:11;2.13;;;0.70;;
71969;SDS011;59838;52.152;5.436;2022-09-09T00:54:48;2.15;;;1.00;;
71969;SDS011;59838;52.152;5.436;2022-09-09T01:00:15;1.92;;;0.90;;
71969;SDS011;59838;52.152;5.436;2022-09-09T01:05:37;4.05;;;1.10;;
71969;SDS011;59838;52.152;5.436;2022-09-09T01:10:59;2.03;;;1.00;;
71969;SDS011;59838;52.152;5.436;2022-09-09T01:13:29;6.43;;;1.15;;
71969;SDS011;59838;52.152;5.436;2022-09-09T01:16:00;2.37;;;1.00;;
71969;SDS011;59838;52.152;5.436;2022-09-09T01:18:30;2.25;;;0.68;;
71969;SDS011;59838;52.152;5.436;2022-09-09T01:23:44;2.50;;;1.08;;
71969;SDS011;59838;52.152;5.436;2022-09-09T01:26:39;2.72;;;1.08;;
71969;SDS011;59838;52.152;5.436;2022-09-09T01:29:08;4.23;;;1.13;;
71969;SDS011;59838;52.152;5.436;2022-09-09T01:31:42;1.92;;;0.90;;
71969;SDS011;59838;52.152;5.436;2022-09-09T01:34:36;2.72;;;0.95;;
71969;SDS011;59838;52.152;5.436;2022-09-09T01:37:10;2.55;;;1.05;;
71969;SDS011;59838;52.152;5.436;2022-09-09T01:39:38;2.60;;;1.15;;
71969;SDS011;59838;52.152;5.436;2022-09-09T01:42:09;2.63;;;1.17;;
71969;SDS011;59838;52.152;5.436;2022-09-09T01:44:38;2.63;;;1.00;;
71969;SDS011;59838;52.152;5.436;2022-09-09T01:47:04;3.25;;;1.23;;
71969;SDS011;59838;52.152;5.436;2022-09-09T01:49:32;2.00;;;1.00;;
71969;SDS011;59838;52.152;5.436;2022-09-09T01:51:58;2.67;;;1.42;;
71969;SDS011;59838;52.152;5.436;2022-09-09T01:54:26;4.30;;;1.43;;
71969;SDS011;59838;52.152;5.436;2022-09-09T02:02:32;3.35;;;1.70;;
71969;SDS011;59838;52.152;5.436;2022-09-09T02:05:23;3.47;;;1.90;;
71969;SDS011;59838;52.152;5.436;2022-09-09T02:07:59;4.03;;;1.70;;
71969;SDS011;59838;52.152;5.436;2022-09-09T02:10:32;2.80;;;1.48;;
71969;SDS011;59838;52.152;5.436;2022-09-09T02:13:12;4.22;;;1.92;;
71969;SDS011;59838;52.152;5.436;2022-09-09T02:18:22;3.70;;;1.92;;
71969;SDS011;59838;52.152;5.436;2022-09-09T02:20:54;4.63;;;1.90;;
71969;SDS011;59838;52.152;5.436;2022-09-09T02:23:23;9.15;;;2.00;;
71969;SDS011;59838;52.152;5.436;2022-09-09T02:25:50;4.35;;;1.90;;
71969;SDS011;59838;52.152;5.436;2022-09-09T02:28:19;3.03;;;1.80;;
71969;SDS011;59838;52.152;5.436;2022-09-09T02:30:48;5.07;;;2.25;;
71969;SDS011;59838;52.152;5.436;2022-09-09T02:33:25;2.03;;;1.50;;
71969;SDS011;59838;52.152;5.436;2022-09-09T02:35:56;2.95;;;1.90;;
71969;SDS011;59838;52.152;5.436;2022-09-09T02:38:29;5.53;;;1.42;;
71969;SDS011;59838;52.152;5.436;2022-09-09T02:41:01;3.78;;;1.85;;
71969;SDS011;59838;52.152;5.436;2022-09-09T02:43:32;3.67;;;2.00;;
71969;SDS011;59838;52.152;5.436;2022-09-09T02:48:52;6.85;;;2.08;;
71969;SDS011;59838;52.152;5.436;2022-09-09T02:54:31;3.85;;;1.58;;
71969;SDS011;59838;52.152;5.436;2022-09-09T02:57:18;2.92;;;2.03;;
71969;SDS011;59838;52.152;5.436;2022-09-09T02:59:48;4.23;;;2.07;;
71969;SDS011;59838;52.152;5.436;2022-09-09T03:02:16;2.83;;;1.90;;
71969;SDS011;59838;52.152;5.436;2022-09-09T03:04:42;2.45;;;1.75;;
71969;SDS011;59838;52.152;5.436;2022-09-09T03:07:10;4.13;;;2.15;;
71969;SDS011;59838;52.152;5.436;2022-09-09T03:09:38;2.45;;;2.15;;
71969;SDS011;59838;52.152;5.436;2022-09-09T03:12:04;3.20;;;2.00;;
71969;SDS011;59838;52.152;5.436;2022-09-09T03:14:31;5.63;;;2.47;;
71969;SDS011;59838;52.152;5.436;2022-09-09T03:16:57;2.88;;;2.10;;
71969;SDS011;59838;52.152;5.436;2022-09-09T03:19:26;5.55;;;2.28;;
71969;SDS011;59838;52.152;5.436;2022-09-09T03:21:53;4.07;;;1.95;;
71969;SDS011;59838;52.152;5.436;2022-09-09T03:24:20;4.87;;;2.03;;
71969;SDS011;59838;52.152;5.436;2022-09-09T03:26:48;5.03;;;2.35;;
71969;SDS011;59838;52.152;5.436;2022-09-09T03:29:16;4.57;;;2.78;;
71969;SDS011;59838;52.152;5.436;2022-09-09T03:31:44;5.10;;;2.50;;
71969;SDS011;59838;52.152;5.436;2022-09-09T03:34:11;4.28;;;3.03;;
71969;SDS011;59838;52.152;5.436;2022-09-09T03:36:37;4.77;;;2.53;;
71969;SDS011;59838;52.152;5.436;2022-09-09T03:39:04;4.35;;;2.70;;
71969;SDS011;59838;52.152;5.436;2022-09-09T03:41:30;6.20;;;2.80;;
71969;SDS011;59838;52.152;5.436;2022-09-09T03:43:57;4.38;;;2.50;;
71969;SDS011;59838;52.152;5.436;2022-09-09T03:46:24;4.70;;;2.83;;
71969;SDS011;59838;52.152;5.436;2022-09-09T03:48:52;4.17;;;2.67;;
71969;SDS011;59838;52.152;5.436;2022-09-09T03:51:18;5.25;;;2.50;;
71969;SDS011;59838;52.152;5.436;2022-09-09T03:53:45;3.35;;;2.75;;
71969;SDS011;59838;52.152;5.436;2022-09-09T03:56:11;3.65;;;2.40;;
71969;SDS011;59838;52.152;5.436;2022-09-09T03:58:37;3.30;;;2.75;;
71969;SDS011;59838;52.152;5.436;2022-09-09T04:01:05;3.70;;;2.50;;
71969;SDS011;59838;52.152;5.436;2022-09-09T04:03:35;3.95;;;2.53;;
71969;SDS011;59838;52.152;5.436;2022-09-09T04:06:02;3.50;;;2.92;;
71969;SDS011;59838;52.152;5.436;2022-09-09T04:08:29;4.57;;;2.45;;
71969;SDS011;59838;52.152;5.436;2022-09-09T04:10:59;5.82;;;3.20;;
71969;SDS011;59838;52.152;5.436;2022-09-09T04:13:34;7.10;;;2.40;;
71969;SDS011;59838;52.152;5.436;2022-09-09T04:16:03;6.72;;;2.53;;
71969;SDS011;59838;52.152;5.436;2022-09-09T04:18:31;3.47;;;2.38;;
71969;SDS011;59838;52.152;5.436;2022-09-09T04:20:58;3.20;;;2.70;;
71969;SDS011;59838;52.152;5.436;2022-09-09T04:23:25;4.25;;;2.13;;
71969;SDS011;59838;52.152;5.436;2022-09-09T04:25:55;4.97;;;2.90;;
71969;SDS011;59838;52.152;5.436;2022-09-09T04:28:23;5.60;;;2.33;;
71969;SDS011;59838;52.152;5.436;2022-09-09T04:30:51;4.47;;;2.45;;
71969;SDS011;59838;52.152;5.436;2022-09-09T04:33:18;4.57;;;2.17;;
71969;SDS011;59838;52.152;5.436;2022-09-09T04:35:46;6.97;;;2.92;;
71969;SDS011;59838;52.152;5.436;2022-09-09T04:38:16;5.97;;;2.63;;
71969;SDS011;59838;52.152;5.436;2022-09-09T04:40:43;7.60;;;2.58;;
71969;SDS011;59838;52.152;5.436;2022-09-09T04:43:12;4.80;;;2.50;;
71969;SDS011;59838;52.152;5.436;2022-09-09T04:45:41;7.18;;;2.50;;
71969;SDS011;59838;52.152;5.436;2022-09-09T04:48:08;3.50;;;2.30;;
71969;SDS011;59838;52.152;5.436;2022-09-09T04:50:35;4.63;;;2.37;;
71969;SDS011;59838;52.152;5.436;2022-09-09T04:53:02;3.90;;;2.10;;
71969;SDS011;59838;52.152;5.436;2022-09-09T04:55:31;4.63;;;2.53;;
71969;SDS011;59838;52.152;5.436;2022-09-09T04:57:57;4.55;;;2.10;;
71969;SDS011;59838;52.152;5.436;2022-09-09T05:00:29;3.78;;;2.22;;
71969;SDS011;59838;52.152;5.436;2022-09-09T05:02:56;5.07;;;2.10;;
71969;SDS011;59838;52.152;5.436;2022-09-09T05:05:22;5.63;;;2.08;;
71969;SDS011;59838;52.152;5.436;2022-09-09T05:07:49;4.05;;;2.72;;
71969;SDS011;59838;52.152;5.436;2022-09-09T05:10:15;5.03;;;2.45;;
71969;SDS011;59838;52.152;5.436;2022-09-09T05:12:51;2.78;;;2.00;;
71969;SDS011;59838;52.152;5.436;2022-09-09T05:15:19;4.37;;;1.63;;
71969;SDS011;59838;52.152;5.436;2022-09-09T05:17:47;3.65;;;1.73;;
71969;SDS011;59838;52.152;5.436;2022-09-09T05:20:13;2.90;;;1.92;;
71969;SDS011;59838;52.152;5.436;2022-09-09T05:22:42;3.55;;;1.90;;
71969;SDS011;59838;52.152;5.436;2022-09-09T05:25:09;7.53;;;2.08;;
71969;SDS011;59838;52.152;5.436;2022-09-09T05:27:35;2.83;;;1.60;;
71969;SDS011;59838;52.152;5.436;2022-09-09T05:30:02;3.13;;;1.50;;
71969;SDS011;59838;52.152;5.436;2022-09-09T05:32:30;2.85;;;1.80;;
71969;SDS011;59838;52.152;5.436;2022-09-09T05:35:00;3.65;;;2.38;;
71969;SDS011;59838;52.152;5.436;2022-09-09T05:37:27;5.63;;;1.80;;
71969;SDS011;59838;52.152;5.436;2022-09-09T05:39:54;5.37;;;2.40;;
71969;SDS011;59838;52.152;5.436;2022-09-09T05:42:21;5.70;;;2.83;;
71969;SDS011;59838;52.152;5.436;2022-09-09T05:44:47;6.47;;;2.58;;
71969;SDS011;59838;52.152;5.436;2022-09-09T05:47:13;3.38;;;1.45;;
71969;SDS011;59838;52.152;5.436;2022-09-09T05:49:41;4.68;;;2.40;;
71969;SDS011;59838;52.152;5.436;2022-09-09T05:52:07;6.90;;;1.40;;
71969;SDS011;59838;52.152;5.436;2022-09-09T05:54:35;3.83;;;1.63;;
71969;SDS011;59838;52.152;5.436;2022-09-09T05:57:03;3.25;;;2.00;;
71969;SDS011;59838;52.152;5.436;2022-09-09T05:59:30;5.78;;;1.48;;
71969;SDS011;59838;52.152;5.436;2022-09-09T06:01:57;3.92;;;1.25;;
71969;SDS011;59838;52.152;5.436;2022-09-09T06:04:23;5.47;;;1.47;;
71969;SDS011;59838;52.152;5.436;2022-09-09T06:06:50;4.57;;;1.40;;
71969;SDS011;59838;52.152;5.436;2022-09-09T06:09:16;5.60;;;1.80;;
71969;SDS011;59838;52.152;5.436;2022-09-09T06:11:43;4.32;;;1.20;;
71969;SDS011;59838;52.152;5.436;2022-09-09T06:14:10;5.93;;;1.63;;
71969;SDS011;59838;52.152;5.436;2022-09-09T06:16:36;4.00;;;1.43;;
71969;SDS011;59838;52.152;5.436;2022-09-09T06:19:04;7.95;;;1.73;;
71969;SDS011;59838;52.152;5.436;2022-09-09T06:21:31;3.78;;;1.67;;
71969;SDS011;59838;52.152;5.436;2022-09-09T06:24:00;5.78;;;2.30;;
71969;SDS011;59838;52.152;5.436;2022-09-09T06:26:28;6.78;;;2.08;;
71969;SDS011;59838;52.152;5.436;2022-09-09T06:28:56;7.20;;;1.30;;
71969;SDS011;59838;52.152;5.436;2022-09-09T06:31:25;3.97;;;1.63;;
71969;SDS011;59838;52.152;5.436;2022-09-09T06:33:57;5.70;;;1.42;;
71969;SDS011;59838;52.152;5.436;2022-09-09T06:36:25;4.97;;;1.20;;
71969;SDS011;59838;52.152;5.436;2022-09-09T06:38:53;4.43;;;1.55;;
71969;SDS011;59838;52.152;5.436;2022-09-09T06:41:21;5.77;;;0.93;;
71969;SDS011;59838;52.152;5.436;2022-09-09T06:43:49;7.00;;;1.25;;
71969;SDS011;59838;52.152;5.436;2022-09-09T06:46:20;7.43;;;1.30;;
71969;SDS011;59838;52.152;5.436;2022-09-09T06:48:48;2.97;;;0.95;;
71969;SDS011;59838;52.152;5.436;2022-09-09T06:51:16;4.05;;;1.52;;
71969;SDS011;59838;52.152;5.436;2022-09-09T06:53:44;4.07;;;1.50;;
71969;SDS011;59838;52.152;5.436;2022-09-09T06:58:43;4.30;;;1.45;;
71969;SDS011;59838;52.152;5.436;2022-09-09T07:01:13;2.65;;;0.90;;
71969;SDS011;59838;52.152;5.436;2022-09-09T07:03:42;4.28;;;1.08;;
71969;SDS011;59838;52.152;5.436;2022-09-09T07:06:15;6.67;;;1.10;;
71969;SDS011;59838;52.152;5.436;2022-09-09T07:08:49;4.15;;;0.77;;
71969;SDS011;59838;52.152;5.436;2022-09-09T07:11:22;8.13;;;1.88;;
71969;SDS011;59838;52.152;5.436;2022-09-09T07:13:54;4.47;;;1.10;;
71969;SDS011;59838;52.152;5.436;2022-09-09T07:16:22;5.22;;;1.08;;
71969;SDS011;59838;52.152;5.436;2022-09-09T07:18:54;3.33;;;0.90;;
71969;SDS011;59838;52.152;5.436;2022-09-09T07:21:26;5.53;;;0.90;;
71969;SDS011;59838;52.152;5.436;2022-09-09T07:23:54;4.03;;;1.05;;
71969;SDS011;59838;52.152;5.436;2022-09-09T07:26:22;3.55;;;0.90;;
71969;SDS011;59838;52.152;5.436;2022-09-09T07:28:51;6.13;;;1.38;;
71969;SDS011;59838;52.152;5.436;2022-09-09T07:31:25;9.07;;;1.20;;
71969;SDS011;59838;52.152;5.436;2022-09-09T07:33:53;3.15;;;1.20;;
71969;SDS011;59838;52.152;5.436;2022-09-09T07:36:21;5.05;;;0.95;;
71969;SDS011;59838;52.152;5.436;2022-09-09T07:38:49;5.95;;;1.08;;
71969;SDS011;59838;52.152;5.436;2022-09-09T07:41:19;6.18;;;0.77;;
71969;SDS011;59838;52.152;5.436;2022-09-09T07:43:47;4.40;;;0.53;;
71969;SDS011;59838;52.152;5.436;2022-09-09T07:46:15;9.15;;;1.23;;
71969;SDS011;59838;52.152;5.436;2022-09-09T07:48:46;5.03;;;0.90;;
71969;SDS011;59838;52.152;5.436;2022-09-09T07:51:20;5.72;;;0.85;;
71969;SDS011;59838;52.152;5.436;2022-09-09T07:53:50;4.68;;;1.10;;
71969;SDS011;59838;52.152;5.436;2022-09-09T07:56:18;5.83;;;1.20;;
71969;SDS011;59838;52.152;5.436;2022-09-09T07:58:50;2.83;;;0.85;;
71969;SDS011;59838;52.152;5.436;2022-09-09T08:01:19;7.85;;;1.65;;
71969;SDS011;59838;52.152;5.436;2022-09-09T08:03:57;4.72;;;1.02;;
71969;SDS011;59838;52.152;5.436;2022-09-09T08:06:32;3.45;;;1.08;;
71969;SDS011;59838;52.152;5.436;2022-09-09T08:09:01;4.00;;;0.97;;
71969;SDS011;59838;52.152;5.436;2022-09-09T08:11:28;4.68;;;0.90;;
71969;SDS011;59838;52.152;5.436;2022-09-09T08:14:00;3.55;;;0.85;;
71969;SDS011;59838;52.152;5.436;2022-09-09T08:16:32;3.33;;;1.10;;
71969;SDS011;59838;52.152;5.436;2022-09-09T08:19:02;4.82;;;1.10;;
71969;SDS011;59838;52.152;5.436;2022-09-09T08:21:30;7.60;;;1.93;;
71969;SDS011;59838;52.152;5.436;2022-09-09T08:23:58;5.43;;;0.70;;
71969;SDS011;59838;52.152;5.436;2022-09-09T08:26:29;6.60;;;1.45;;
71969;SDS011;59838;52.152;5.436;2022-09-09T08:28:58;8.23;;;1.17;;
71969;SDS011;59838;52.152;5.436;2022-09-09T08:31:27;8.50;;;0.90;;
71969;SDS011;59838;52.152;5.436;2022-09-09T08:33:58;3.03;;;0.80;;
71969;SDS011;59838;52.152;5.436;2022-09-09T08:36:26;5.97;;;1.25;;
71969;SDS011;59838;52.152;5.436;2022-09-09T08:38:54;3.78;;;0.82;;
71969;SDS011;59838;52.152;5.436;2022-09-09T08:58:29;3.70;;;0.45;;
71969;SDS011;59838;52.152;5.436;2022-09-09T09:06:41;6.22;;;1.20;;
71969;SDS011;59838;52.152;5.436;2022-09-09T09:09:21;5.05;;;1.05;;
71969;SDS011;59838;52.152;5.436;2022-09-09T09:11:57;4.57;;;0.70;;
71969;SDS011;59838;52.152;5.436;2022-09-09T09:14:28;3.10;;;0.50;;
71969;SDS011;59838;52.152;5.436;2022-09-09T09:17:00;3.40;;;0.75;;
71969;SDS011;59838;52.152;5.436;2022-09-09T09:19:28;5.40;;;0.70;;
71969;SDS011;59838;52.152;5.436;2022-09-09T09:22:16;3.15;;;0.88;;
71969;SDS011;59838;52.152;5.436;2022-09-09T09:24:59;3.33;;;1.00;;
71969;SDS011;59838;52.152;5.436;2022-09-09T09:27:30;7.03;;;1.17;;
71969;SDS011;59838;52.152;5.436;2022-09-09T09:30:00;1.63;;;0.63;;
71969;SDS011;59838;52.152;5.436;2022-09-09T09:32:56;4.10;;;1.17;;
71969;SDS011;59838;52.152;5.436;2022-09-09T09:35:27;5.80;;;0.90;;
71969;SDS011;59838;52.152;5.436;2022-09-09T09:37:53;7.43;;;1.20;;
71969;SDS011;59838;52.152;5.436;2022-09-09T09:40:47;4.57;;;0.80;;
71969;SDS011;59838;52.152;5.436;2022-09-09T09:43:25;5.28;;;1.13;;
71969;SDS011;59838;52.152;5.436;2022-09-09T09:45:54;5.43;;;1.17;;
71969;SDS011;59838;52.152;5.436;2022-09-09T09:48:41;5.28;;;0.90;;
71969;SDS011;59838;52.152;5.436;2022-09-09T09:51:08;5.32;;;1.15;;
71969;SDS011;59838;52.152;5.436;2022-09-09T09:53:42;3.97;;;0.70;;
71969;SDS011;59838;52.152;5.436;2022-09-09T09:56:10;6.85;;;0.75;;
71969;SDS011;59838;52.152;5.436;2022-09-09T10:01:23;2.88;;;0.70;;
71969;SDS011;59838;52.152;5.436;2022-09-09T10:03:54;5.20;;;0.75;;
71969;SDS011;59838;52.152;5.436;2022-09-09T10:06:32;3.87;;;0.57;;
71969;SDS011;59838;52.152;5.436;2022-09-09T10:09:00;5.70;;;1.25;;
71969;SDS011;59838;52.152;5.436;2022-09-09T10:11:35;6.40;;;1.00;;
71969;SDS011;59838;52.152;5.436;2022-09-09T10:14:18;7.28;;;0.60;;
71969;SDS011;59838;52.152;5.436;2022-09-09T10:16:58;4.53;;;0.70;;
71969;SDS011;59838;52.152;5.436;2022-09-09T10:19:30;5.73;;;0.97;;
71969;SDS011;59838;52.152;5.436;2022-09-09T10:24:53;9.02;;;1.27;;
71969;SDS011;59838;52.152;5.436;2022-09-09T10:27:53;5.95;;;0.65;;
71969;SDS011;59838;52.152;5.436;2022-09-09T10:30:47;6.80;;;1.00;;
71969;SDS011;59838;52.152;5.436;2022-09-09T10:33:39;5.30;;;0.90;;
71969;SDS011;59838;52.152;5.436;2022-09-09T10:36:32;7.70;;;1.02;;
71969;SDS011;59838;52.152;5.436;2022-09-09T10:39:07;7.50;;;1.02;;
71969;SDS011;59838;52.152;5.436;2022-09-09T10:42:16;3.13;;;0.88;;
71969;SDS011;59838;52.152;5.436;2022-09-09T10:45:29;6.00;;;0.82;;
71969;SDS011;59838;52.152;5.436;2022-09-09T10:47:52;4.10;;;0.70;;
71969;SDS011;59838;52.152;5.436;2022-09-09T10:50:49;6.63;;;0.88;;
71969;SDS011;59838;52.152;5.436;2022-09-09T10:53:33;4.93;;;1.00;;
71969;SDS011;59838;52.152;5.436;2022-09-09T10:56:08;5.05;;;0.50;;
71969;SDS011;59838;52.152;5.436;2022-09-09T10:58:58;3.88;;;0.80;;
71969;SDS011;59838;52.152;5.436;2022-09-09T11:01:47;4.43;;;0.80;;
71969;SDS011;59838;52.152;5.436;2022-09-09T11:07:08;3.83;;;0.95;;
71969;SDS011;59838;52.152;5.436;2022-09-09T11:09:42;5.68;;;1.10;;
71969;SDS011;59838;52.152;5.436;2022-09-09T11:12:18;4.72;;;1.02;;
71969;SDS011;59838;52.152;5.436;2022-09-09T11:14:50;1.53;;;0.70;;
71969;SDS011;59838;52.152;5.436;2022-09-09T11:17:26;4.32;;;0.90;;
71969;SDS011;59838;52.152;5.436;2022-09-09T11:20:04;3.83;;;0.90;;
71969;SDS011;59838;52.152;5.436;2022-09-09T11:30:34;4.18;;;1.27;;
71969;SDS011;59838;52.152;5.436;2022-09-09T11:39:02;2.88;;;0.80;;
71969;SDS011;59838;52.152;5.436;2022-09-09T11:41:44;8.60;;;0.80;;
71969;SDS011;59838;52.152;5.436;2022-09-09T11:44:12;6.18;;;0.80;;
71969;SDS011;59838;52.152;5.436;2022-09-09T11:46:46;4.40;;;0.90;;
71969;SDS011;59838;52.152;5.436;2022-09-09T11:49:27;6.05;;;0.73;;
71969;SDS011;59838;52.152;5.436;2022-09-09T11:51:57;2.83;;;0.70;;
71969;SDS011;59838;52.152;5.436;2022-09-09T11:54:30;3.33;;;0.70;;
71969;SDS011;59838;52.152;5.436;2022-09-09T11:56:58;2.20;;;0.60;;
71969;SDS011;59838;52.152;5.436;2022-09-09T11:59:29;3.80;;;0.90;;
71969;SDS011;59838;52.152;5.436;2022-09-09T12:02:00;4.45;;;0.90;;
71969;SDS011;59838;52.152;5.436;2022-09-09T12:04:39;3.20;;;0.43;;
71969;SDS011;59838;52.152;5.436;2022-09-09T12:12:22;2.95;;;1.10;;
71969;SDS011;59838;52.152;5.436;2022-09-09T12:17:41;5.65;;;1.08;;
71969;SDS011;59838;52.152;5.436;2022-09-09T12:20:21;3.23;;;1.33;;
71969;SDS011;59838;52.152;5.436;2022-09-09T12:34:15;3.43;;;0.70;;
71969;SDS011;59838;52.152;5.436;2022-09-09T12:36:58;1.88;;;0.77;;
71969;SDS011;59838;52.152;5.436;2022-09-09T12:39:31;8.35;;;1.20;;
71969;SDS011;59838;52.152;5.436;2022-09-09T12:42:05;3.33;;;1.08;;
71969;SDS011;59838;52.152;5.436;2022-09-09T12:44:40;3.97;;;1.27;;
71969;SDS011;59838;52.152;5.436;2022-09-09T12:47:17;9.60;;;1.33;;
71969;SDS011;59838;52.152;5.436;2022-09-09T12:49:45;4.40;;;1.40;;
71969;SDS011;59838;52.152;5.436;2022-09-09T12:52:26;2.97;;;1.45;;
71969;SDS011;59838;52.152;5.436;2022-09-09T12:54:58;4.68;;;1.17;;
71969;SDS011;59838;52.152;5.436;2022-09-09T12:57:29;3.83;;;1.00;;
71969;SDS011;59838;52.152;5.436;2022-09-09T13:00:08;5.03;;;1.17;;
71969;SDS011;59838;52.152;5.436;2022-09-09T13:02:55;4.30;;;1.30;;
71969;SDS011;59838;52.152;5.436;2022-09-09T13:05:26;2.83;;;1.10;;
71969;SDS011;59838;52.152;5.436;2022-09-09T13:08:27;3.80;;;1.10;;
71969;SDS011;59838;52.152;5.436;2022-09-09T13:10:50;2.22;;;0.90;;
71969;SDS011;59838;52.152;5.436;2022-09-09T13:13:35;4.70;;;0.80;;
71969;SDS011;59838;52.152;5.436;2022-09-09T13:16:04;4.95;;;0.85;;
71969;SDS011;59838;52.152;5.436;2022-09-09T13:18:35;1.73;;;0.68;;
71969;SDS011;59838;52.152;5.436;2022-09-09T13:21:05;4.20;;;0.93;;
71969;SDS011;59838;52.152;5.436;2022-09-09T13:23:33;2.20;;;0.50;;
71969;SDS011;59838;52.152;5.436;2022-09-09T13:26:05;2.80;;;0.60;;
71969;SDS011;59838;52.152;5.436;2022-09-09T13:28:53;2.15;;;0.98;;
71969;SDS011;59838;52.152;5.436;2022-09-09T13:31:32;2.63;;;0.60;;
71969;SDS011;59838;52.152;5.436;2022-09-09T13:34:22;5.57;;;1.45;;
71969;SDS011;59838;52.152;5.436;2022-09-09T13:36:54;4.57;;;0.70;;
71969;SDS011;59838;52.152;5.436;2022-09-09T13:39:28;3.17;;;0.73;;
71969;SDS011;59838;52.152;5.436;2022-09-09T13:41:55;2.72;;;0.98;;
71969;SDS011;59838;52.152;5.436;2022-09-09T13:49:35;4.68;;;1.25;;
71969;SDS011;59838;52.152;5.436;2022-09-09T13:52:03;2.37;;;1.03;;
71969;SDS011;59838;52.152;5.436;2022-09-09T13:54:33;4.00;;;1.25;;
71969;SDS011;59838;52.152;5.436;2022-09-09T13:56:59;5.32;;;1.13;;
71969;SDS011;59838;52.152;5.436;2022-09-09T13:59:27;2.60;;;1.02;;
71969;SDS011;59838;52.152;5.436;2022-09-09T14:02:14;3.38;;;0.95;;
71969;SDS011;59838;52.152;5.436;2022-09-09T14:04:42;3.50;;;0.80;;
71969;SDS011;59838;52.152;5.436;2022-09-09T14:07:13;4.82;;;1.35;;
71969;SDS011;59838;52.152;5.436;2022-09-09T14:09:41;3.92;;;0.90;;
71969;SDS011;59838;52.152;5.436;2022-09-09T14:12:09;5.32;;;1.00;;
71969;SDS011;59838;52.152;5.436;2022-09-09T14:14:37;5.43;;;1.30;;
71969;SDS011;59838;52.152;5.436;2022-09-09T14:17:04;4.13;;;0.77;;
71969;SDS011;59838;52.152;5.436;2022-09-09T14:19:33;3.80;;;1.10;;
71969;SDS011;59838;52.152;5.436;2022-09-09T14:21:59;4.38;;;1.05;;
71969;SDS011;59838;52.152;5.436;2022-09-09T14:24:27;4.65;;;0.70;;
71969;SDS011;59838;52.152;5.436;2022-09-09T14:26:54;3.03;;;1.08;;
71969;SDS011;59838;52.152;5.436;2022-09-09T14:29:20;5.67;;;1.03;;
71969;SDS011;59838;52.152;5.436;2022-09-09T14:31:47;8.10;;;1.30;;
71969;SDS011;59838;52.152;5.436;2022-09-09T14:34:13;4.38;;;1.10;;
71969;SDS011;59838;52.152;5.436;2022-09-09T14:36:40;3.15;;;0.90;;
71969;SDS011;59838;52.152;5.436;2022-09-09T14:39:07;3.05;;;1.50;;
71969;SDS011;59838;52.152;5.436;2022-09-09T14:41:34;3.53;;;0.90;;
71969;SDS011;59838;52.152;5.436;2022-09-09T14:44:00;2.70;;;0.98;;
71969;SDS011;59838;52.152;5.436;2022-09-09T14:46:27;4.35;;;1.25;;
71969;SDS011;59838;52.152;5.436;2022-09-09T14:48:53;2.67;;;1.33;;
71969;SDS011;59838;52.152;5.436;2022-09-09T14:51:21;4.03;;;1.70;;
71969;SDS011;59838;52.152;5.436;2022-09-09T14:53:54;6.20;;;1.37;;
71969;SDS011;59838;52.152;5.436;2022-09-09T14:56:24;4.55;;;1.17;;
71969;SDS011;59838;52.152;5.436;2022-09-09T14:58:53;6.15;;;1.55;;
71969;SDS011;59838;52.152;5.436;2022-09-09T15:01:21;3.85;;;1.65;;
71969;SDS011;59838;52.152;5.436;2022-09-09T15:03:50;4.35;;;1.30;;
71969;SDS011;59838;52.152;5.436;2022-09-09T15:06:21;3.87;;;1.20;;
71969;SDS011;59838;52.152;5.436;2022-09-09T15:08:50;5.93;;;1.65;;
71969;SDS011;59838;52.152;5.436;2022-09-09T15:11:18;8.15;;;1.85;;
71969;SDS011;59838;52.152;5.436;2022-09-09T15:13:46;5.75;;;1.75;;
71969;SDS011;59838;52.152;5.436;2022-09-09T15:16:14;4.97;;;1.70;;
71969;SDS011;59838;52.152;5.436;2022-09-09T15:18:42;3.80;;;1.47;;
71969;SDS011;59838;52.152;5.436;2022-09-09T15:21:15;4.53;;;1.40;;
71969;SDS011;59838;52.152;5.436;2022-09-09T15:23:43;3.60;;;0.95;;
71969;SDS011;59838;52.152;5.436;2022-09-09T15:26:09;3.03;;;0.70;;
71969;SDS011;59838;52.152;5.436;2022-09-09T15:28:36;3.13;;;1.30;;
71969;SDS011;59838;52.152;5.436;2022-09-09T15:31:05;0.93;;;0.73;;
71969;SDS011;59838;52.152;5.436;2022-09-09T15:33:54;3.97;;;0.80;;
71969;SDS011;59838;52.152;5.436;2022-09-09T15:36:30;3.03;;;1.05;;
71969;SDS011;59838;52.152;5.436;2022-09-09T15:39:02;1.75;;;0.70;;
71969;SDS011;59838;52.152;5.436;2022-09-09T15:41:29;2.67;;;0.50;;
71969;SDS011;59838;52.152;5.436;2022-09-09T15:43:58;2.23;;;0.60;;
71969;SDS011;59838;52.152;5.436;2022-09-09T15:46:38;3.22;;;0.55;;
71969;SDS011;59838;52.152;5.436;2022-09-09T15:51:40;4.22;;;0.70;;
71969;SDS011;59838;52.152;5.436;2022-09-09T15:54:10;2.47;;;0.55;;
71969;SDS011;59838;52.152;5.436;2022-09-09T15:56:39;3.80;;;0.63;;
71969;SDS011;59838;52.152;5.436;2022-09-09T15:59:06;2.53;;;0.90;;
71969;SDS011;59838;52.152;5.436;2022-09-09T16:01:32;3.05;;;0.50;;
71969;SDS011;59838;52.152;5.436;2022-09-09T16:03:59;2.35;;;0.60;;
71969;SDS011;59838;52.152;5.436;2022-09-09T16:06:27;3.53;;;0.80;;
71969;SDS011;59838;52.152;5.436;2022-09-09T16:08:56;2.67;;;0.77;;
71969;SDS011;59838;52.152;5.436;2022-09-09T16:13:55;0.95;;;0.63;;
71969;SDS011;59838;52.152;5.436;2022-09-09T16:16:23;3.47;;;0.43;;
71969;SDS011;59838;52.152;5.436;2022-09-09T16:18:52;2.05;;;0.65;;
71969;SDS011;59838;52.152;5.436;2022-09-09T16:21:21;2.70;;;0.40;;
71969;SDS011;59838;52.152;5.436;2022-09-09T16:23:59;2.40;;;0.40;;
71969;SDS011;59838;52.152;5.436;2022-09-09T16:26:27;1.95;;;0.80;;
71969;SDS011;59838;52.152;5.436;2022-09-09T16:28:54;1.55;;;0.70;;
71969;SDS011;59838;52.152;5.436;2022-09-09T16:31:22;3.83;;;0.70;;
71969;SDS011;59838;52.152;5.436;2022-09-09T16:33:50;1.60;;;0.40;;
71969;SDS011;59838;52.152;5.436;2022-09-09T16:36:21;2.80;;;0.90;;
71969;SDS011;59838;52.152;5.436;2022-09-09T16:38:57;2.97;;;0.60;;
71969;SDS011;59838;52.152;5.436;2022-09-09T16:41:25;1.73;;;0.50;;
71969;SDS011;59838;52.152;5.436;2022-09-09T16:43:54;3.08;;;0.60;;
71969;SDS011;59838;52.152;5.436;2022-09-09T16:46:25;4.00;;;0.47;;
71969;SDS011;59838;52.152;5.436;2022-09-09T16:48:53;2.72;;;0.47;;
71969;SDS011;59838;52.152;5.436;2022-09-09T16:51:23;2.20;;;0.55;;
71969;SDS011;59838;52.152;5.436;2022-09-09T16:53:55;2.08;;;0.70;;
71969;SDS011;59838;52.152;5.436;2022-09-09T16:56:25;2.70;;;0.73;;
71969;SDS011;59838;52.152;5.436;2022-09-09T16:58:57;1.77;;;0.50;;
71969;SDS011;59838;52.152;5.436;2022-09-09T17:01:26;1.33;;;0.80;;
71969;SDS011;59838;52.152;5.436;2022-09-09T17:03:54;2.80;;;0.70;;
71969;SDS011;59838;52.152;5.436;2022-09-09T17:06:26;2.80;;;0.82;;